createdAt,value
2019-04-30T00:01:48.655Z,10.40
2019-04-30T00:04:29.820Z,9.07
2019-04-30T00:06:58.540Z,8.30
2019-04-30T00:09:27.901Z,11.20
2019-04-30T00:12:00.986Z,10.50
2019-04-30T00:14:36.886Z,11.10
2019-04-30T00:16:59.087Z,11.73
2019-04-30T00:19:28.203Z,11.73
2019-04-30T00:22:00.292Z,11.77
2019-04-30T00:24:28.451Z,11.37
2019-04-30T00:26:57.759Z,11.93
2019-04-30T00:29:30.877Z,11.27
2019-04-30T00:32:04.378Z,10.37
2019-04-30T00:34:30.987Z,10.27
2019-04-30T00:37:02.050Z,8.13
2019-04-30T00:39:31.068Z,11.57
2019-04-30T00:42:00.187Z,10.90
2019-04-30T00:44:29.551Z,10.43
2019-04-30T00:49:32.698Z,10.20
2019-04-30T00:52:01.903Z,11.33
2019-04-30T00:54:31.290Z,9.53
2019-04-30T00:57:04.286Z,9.83
2019-04-30T00:59:31.846Z,11.23
2019-04-30T01:02:27.345Z,10.30
2019-04-30T01:04:51.938Z,11.67
2019-04-30T01:07:23.492Z,8.93
2019-04-30T01:09:52.674Z,9.87
2019-04-30T01:12:25.515Z,10.10
2019-04-30T01:14:52.699Z,9.90
2019-04-30T01:17:22.157Z,9.87
2019-04-30T01:19:54.611Z,10.70
2019-04-30T01:22:28.222Z,9.63
2019-04-30T01:24:54.823Z,11.57
2019-04-30T01:27:24.123Z,10.23
2019-04-30T01:29:53.264Z,9.20
2019-04-30T01:32:22.713Z,9.43
2019-04-30T01:34:53.776Z,9.33
2019-04-30T01:37:28.301Z,8.07
2019-04-30T01:39:53.794Z,9.63
2019-04-30T01:42:23.132Z,9.57
2019-04-30T01:44:53.835Z,10.03
2019-04-30T01:47:27.576Z,9.13
2019-04-30T01:49:55.927Z,10.17
2019-04-30T01:52:29.249Z,10.30
2019-04-30T01:54:59.180Z,9.03
2019-04-30T01:57:36.217Z,10.33
2019-04-30T02:00:22.655Z,9.30
2019-04-30T02:02:51.730Z,7.63
2019-04-30T02:05:21.031Z,9.23
2019-04-30T02:07:50.271Z,9.40
2019-04-30T02:10:19.515Z,9.40
2019-04-30T02:12:49.388Z,9.87
2019-04-30T02:15:19.335Z,10.27
2019-04-30T02:17:50.373Z,9.53
2019-04-30T02:20:24.874Z,9.03
2019-04-30T02:22:53.916Z,9.37
2019-04-30T02:25:23.612Z,9.77
2019-04-30T02:27:52.792Z,9.07
2019-04-30T02:30:22.181Z,9.87
2019-04-30T02:32:52.551Z,10.33
2019-04-30T02:35:32.704Z,10.70
2019-04-30T02:38:21.078Z,8.73
2019-04-30T02:40:52.575Z,11.93
2019-04-30T02:43:24.464Z,10.67
2019-04-30T02:45:55.971Z,8.83
2019-04-30T02:48:29.472Z,9.07
2019-04-30T02:51:01.473Z,9.93
2019-04-30T02:54:10.754Z,9.97
2019-04-30T02:56:41.395Z,10.17
2019-04-30T02:59:10.561Z,9.00
2019-04-30T03:01:40.397Z,8.60
2019-04-30T03:04:10.925Z,8.80
2019-04-30T03:06:40.556Z,8.17
2019-04-30T03:09:10.794Z,8.90
2019-04-30T03:11:40.762Z,8.67
2019-04-30T03:14:10.883Z,8.43
2019-04-30T03:16:53.020Z,8.83
2019-04-30T03:19:36.343Z,10.00
2019-04-30T03:22:14.043Z,8.53
2019-04-30T03:24:49.826Z,8.30
2019-04-30T03:27:24.478Z,9.10
2019-04-30T03:29:52.039Z,8.27
2019-04-30T03:32:22.651Z,9.37
2019-04-30T03:34:52.273Z,8.40
2019-04-30T03:37:21.570Z,8.73
2019-04-30T03:39:50.995Z,8.33
2019-04-30T03:42:20.210Z,8.20
2019-04-30T03:44:49.715Z,8.57
2019-04-30T03:47:20.151Z,7.77
2019-04-30T03:49:50.223Z,7.73
2019-04-30T03:52:19.858Z,7.53
2019-04-30T03:54:49.675Z,7.23
2019-04-30T03:57:20.400Z,7.43
2019-04-30T03:59:50.080Z,7.70
2019-04-30T04:02:40.547Z,7.77
2019-04-30T04:05:31.186Z,7.90
2019-04-30T04:08:11.136Z,6.13
2019-04-30T04:10:50.151Z,7.27
2019-04-30T04:13:19.721Z,7.07
2019-04-30T04:16:16.047Z,7.20
2019-04-30T04:18:45.200Z,7.17
2019-04-30T04:21:16.862Z,7.43
2019-04-30T04:23:45.841Z,6.67
2019-04-30T04:26:15.443Z,8.57
2019-04-30T04:28:44.593Z,7.13
2019-04-30T04:31:22.001Z,9.13
2019-04-30T04:33:52.866Z,5.73
2019-04-30T04:36:22.213Z,7.93
2019-04-30T04:38:51.505Z,8.27
2019-04-30T04:41:20.598Z,6.33
2019-04-30T04:43:50.585Z,7.73
2019-04-30T04:46:20.541Z,6.80
2019-04-30T04:48:49.917Z,8.03
2019-04-30T04:51:32.475Z,6.70
2019-04-30T04:53:50.251Z,6.37
2019-04-30T04:56:19.476Z,8.70
2019-04-30T04:58:50.165Z,7.47
2019-04-30T05:01:20.537Z,8.70
2019-04-30T05:03:49.935Z,7.67
2019-04-30T05:06:21.938Z,7.57
2019-04-30T05:08:50.488Z,8.40
2019-04-30T05:11:19.788Z,8.43
2019-04-30T05:13:49.162Z,8.93
2019-04-30T05:16:21.708Z,9.20
2019-04-30T05:18:51.070Z,7.83
2019-04-30T05:21:20.271Z,9.87
2019-04-30T05:23:49.506Z,8.33
2019-04-30T05:26:19.201Z,7.50
2019-04-30T05:28:52.464Z,7.50
2019-04-30T05:31:22.505Z,6.50
2019-04-30T05:33:52.503Z,6.83
2019-04-30T05:36:21.634Z,8.23
2019-04-30T05:38:50.722Z,6.83
2019-04-30T05:41:19.873Z,7.80
2019-04-30T05:43:49.091Z,8.13
2019-04-30T05:46:19.664Z,7.43
2019-04-30T05:48:49.539Z,8.87
2019-04-30T05:51:21.174Z,9.73
2019-04-30T05:53:54.848Z,7.73
2019-04-30T05:56:24.015Z,8.00
2019-04-30T05:58:53.147Z,6.83
2019-04-30T06:01:24.769Z,8.90
2019-04-30T06:03:54.115Z,6.37
2019-04-30T06:06:23.310Z,8.00
2019-04-30T06:09:13.002Z,7.27
2019-04-30T06:12:11.357Z,7.27
2019-04-30T06:14:53.107Z,6.93
2019-04-30T06:17:22.221Z,7.07
2019-04-30T06:19:51.683Z,6.13
2019-04-30T06:22:21.735Z,7.40
2019-04-30T06:24:50.889Z,7.60
2019-04-30T06:27:20.546Z,6.40
2019-04-30T06:29:49.982Z,7.70
2019-04-30T06:32:22.519Z,7.10
2019-04-30T06:34:51.766Z,9.20
2019-04-30T06:37:21.619Z,9.00
2019-04-30T06:39:54.861Z,8.67
2019-04-30T06:42:24.582Z,7.60
2019-04-30T06:44:53.734Z,9.37
2019-04-30T06:47:32.802Z,8.13
2019-04-30T06:49:54.662Z,6.80
2019-04-30T06:52:24.135Z,7.37
2019-04-30T06:54:53.376Z,6.27
2019-04-30T06:57:22.855Z,8.37
2019-04-30T06:59:52.114Z,8.50
2019-04-30T07:02:21.314Z,7.93
2019-04-30T07:04:50.313Z,6.57
2019-04-30T07:07:23.121Z,8.37
2019-04-30T07:10:02.950Z,6.60
2019-04-30T07:12:42.366Z,7.63
2019-04-30T07:15:13.645Z,7.03
2019-04-30T07:17:49.296Z,7.10
2019-04-30T07:20:19.242Z,7.40
2019-04-30T07:22:52.469Z,7.17
2019-04-30T07:25:19.581Z,8.90
2019-04-30T07:27:50.476Z,6.77
2019-04-30T07:30:19.984Z,8.30
2019-04-30T07:32:49.133Z,7.73
2019-04-30T07:35:19.583Z,8.37
2019-04-30T07:37:54.649Z,7.47
2019-04-30T07:40:22.479Z,8.37
2019-04-30T07:42:51.712Z,9.47
2019-04-30T07:45:25.413Z,8.40
2019-04-30T07:47:51.529Z,9.33
2019-04-30T07:50:21.972Z,7.63
2019-04-30T07:53:01.903Z,8.93
2019-04-30T07:55:22.700Z,7.97
2019-04-30T07:57:51.859Z,7.97
2019-04-30T08:00:21.285Z,7.60
2019-04-30T08:02:59.907Z,8.77
2019-04-30T08:05:36.672Z,7.70
2019-04-30T08:08:20.131Z,8.20
2019-04-30T08:10:50.775Z,9.60
2019-04-30T08:13:21.832Z,8.57
2019-04-30T08:15:51.187Z,7.23
2019-04-30T08:18:20.438Z,8.43
2019-04-30T08:20:49.647Z,8.63
2019-04-30T08:23:33.464Z,7.97
2019-04-30T08:25:50.266Z,7.17
2019-04-30T08:28:19.678Z,8.07
2019-04-30T08:30:49.023Z,8.53
2019-04-30T08:33:19.327Z,10.20
2019-04-30T08:35:49.901Z,9.73
2019-04-30T08:38:19.463Z,7.83
2019-04-30T08:40:57.649Z,10.37
2019-04-30T08:43:19.905Z,10.70
2019-04-30T08:45:49.165Z,9.17
2019-04-30T08:48:18.986Z,9.80
2019-04-30T08:50:49.509Z,8.27
2019-04-30T08:53:27.395Z,8.00
2019-04-30T08:55:50.290Z,9.63
2019-04-30T08:58:20.564Z,8.53
2019-04-30T09:00:49.898Z,10.77
2019-04-30T09:03:19.477Z,8.40
2019-04-30T09:06:17.226Z,8.97
2019-04-30T09:08:49.014Z,10.10
2019-04-30T09:11:24.684Z,9.07
2019-04-30T09:13:49.992Z,9.00
2019-04-30T09:16:19.546Z,9.27
2019-04-30T09:18:49.520Z,10.73
2019-04-30T09:21:18.769Z,10.63
2019-04-30T09:23:52.401Z,9.37
2019-04-30T09:26:19.442Z,10.23
2019-04-30T09:28:49.445Z,11.60
2019-04-30T09:31:19.988Z,10.53
2019-04-30T09:33:49.413Z,9.97
2019-04-30T09:36:20.589Z,11.00
2019-04-30T09:38:49.628Z,10.57
2019-04-30T09:41:19.275Z,9.53
2019-04-30T09:43:49.546Z,11.17
2019-04-30T09:46:26.374Z,10.87
2019-04-30T09:48:50.863Z,10.70
2019-04-30T09:51:23.907Z,10.57
2019-04-30T09:53:59.228Z,11.17
2019-04-30T09:56:21.842Z,10.97
2019-04-30T09:58:50.867Z,10.53
2019-04-30T10:01:22.082Z,10.70
2019-04-30T10:03:51.306Z,11.87
2019-04-30T10:06:20.984Z,10.37
2019-04-30T10:08:51.319Z,12.23
2019-04-30T10:11:42.409Z,10.20
2019-04-30T10:14:11.546Z,11.40
2019-04-30T10:17:04.913Z,11.33
2019-04-30T10:19:34.163Z,11.00
2019-04-30T10:22:03.746Z,11.03
2019-04-30T10:24:33.981Z,11.60
2019-04-30T10:27:03.329Z,12.07
2019-04-30T10:29:32.567Z,11.67
2019-04-30T10:32:01.820Z,11.97
2019-04-30T10:34:31.022Z,11.53
2019-04-30T10:37:02.859Z,10.60
2019-04-30T10:39:31.358Z,11.23
2019-04-30T10:42:00.626Z,11.23
2019-04-30T10:44:29.927Z,11.03
2019-04-30T10:46:59.473Z,12.80
2019-04-30T10:49:29.264Z,11.37
2019-04-30T10:52:00.800Z,12.37
2019-04-30T10:54:29.742Z,11.70
2019-04-30T10:56:59.271Z,12.00
2019-04-30T10:59:29.366Z,12.90
2019-04-30T11:01:59.219Z,10.33
2019-04-30T11:04:28.611Z,9.93
2019-04-30T11:07:00.154Z,11.83
2019-04-30T11:09:31.060Z,12.90
2019-04-30T11:12:02.896Z,11.30
2019-04-30T11:14:31.639Z,12.07
2019-04-30T11:17:01.219Z,12.13
2019-04-30T11:19:30.722Z,10.23
2019-04-30T11:22:00.212Z,10.97
2019-04-30T11:24:36.581Z,11.17
2019-04-30T11:27:01.381Z,10.83
2019-04-30T11:29:31.436Z,11.13
2019-04-30T11:32:21.930Z,10.43
2019-04-30T11:34:51.391Z,10.00
2019-04-30T11:37:20.830Z,10.87
2019-04-30T11:39:50.101Z,11.17
2019-04-30T11:42:19.689Z,11.10
2019-04-30T11:44:48.976Z,10.50
2019-04-30T11:47:27.254Z,11.13
2019-04-30T11:49:56.834Z,10.10
2019-04-30T11:52:26.079Z,10.30
2019-04-30T11:54:55.467Z,10.20
2019-04-30T11:57:24.672Z,10.53
2019-04-30T11:59:53.912Z,10.93
2019-04-30T12:02:42.142Z,9.57
2019-04-30T12:05:13.739Z,9.57
2019-04-30T12:08:01.915Z,9.40
2019-04-30T12:10:50.255Z,11.93
2019-04-30T12:13:26.612Z,11.63
2019-04-30T12:15:59.536Z,9.90
2019-04-30T12:18:29.034Z,10.67
2019-04-30T12:20:58.736Z,12.13
2019-04-30T12:23:27.988Z,12.17
2019-04-30T12:26:00.017Z,11.80
2019-04-30T12:28:29.696Z,11.80
2019-04-30T12:30:58.999Z,11.67
2019-04-30T12:33:28.201Z,10.63
2019-04-30T12:35:59.623Z,9.27
2019-04-30T12:38:29.900Z,11.13
2019-04-30T12:41:19.223Z,12.30
2019-04-30T12:43:49.819Z,9.90
2019-04-30T12:46:21.282Z,12.07
2019-04-30T12:49:07.105Z,11.40
2019-04-30T12:51:50.521Z,10.27
2019-04-30T12:54:57.361Z,9.73
2019-04-30T12:57:39.303Z,10.53
2019-04-30T13:00:12.801Z,10.30
2019-04-30T13:02:42.088Z,9.60
2019-04-30T13:05:11.560Z,9.40
2019-04-30T13:07:41.493Z,9.00
2019-04-30T13:10:11.727Z,8.70
2019-04-30T13:12:42.726Z,8.70
2019-04-30T13:15:31.672Z,8.17
2019-04-30T13:18:01.253Z,8.47
2019-04-30T13:20:31.287Z,8.17
2019-04-30T13:23:00.451Z,8.80
2019-04-30T13:25:35.207Z,8.40
2019-04-30T13:28:06.055Z,7.87
2019-04-30T13:30:35.399Z,9.07
2019-04-30T13:33:15.918Z,8.67
2019-04-30T13:35:45.090Z,8.63
2019-04-30T13:38:49.109Z,8.43
2019-04-30T13:41:31.129Z,7.73
2019-04-30T13:44:05.700Z,9.17
2019-04-30T13:46:34.990Z,6.87
2019-04-30T13:49:04.279Z,7.60
2019-04-30T13:51:33.408Z,8.33
2019-04-30T13:54:02.574Z,7.50
2019-04-30T13:56:31.763Z,8.10
2019-04-30T13:59:00.889Z,9.27
2019-04-30T14:01:31.827Z,9.77
2019-04-30T14:04:22.831Z,7.77
2019-04-30T14:07:18.506Z,9.87
2019-04-30T14:09:47.759Z,9.03
2019-04-30T14:12:23.181Z,9.60
2019-04-30T14:14:52.432Z,9.57
2019-04-30T14:17:21.975Z,9.10
2019-04-30T14:19:52.815Z,9.13
2019-04-30T14:22:22.090Z,8.47
2019-04-30T14:24:51.611Z,8.50
2019-04-30T14:27:20.858Z,10.40
2019-04-30T14:29:50.689Z,10.23
2019-04-30T14:32:20.258Z,9.53
2019-04-30T14:34:50.701Z,10.37
2019-04-30T14:37:20.140Z,10.20
2019-04-30T14:39:50.275Z,10.00
2019-04-30T14:42:20.595Z,9.77
2019-04-30T14:44:55.458Z,10.07
2019-04-30T14:47:34.668Z,10.13
2019-04-30T14:50:18.463Z,10.43
2019-04-30T14:53:12.852Z,11.23
2019-04-30T14:55:51.867Z,9.73
2019-04-30T14:58:49.515Z,11.03
2019-04-30T15:01:52.719Z,9.20
2019-04-30T15:04:22.491Z,11.43
2019-04-30T15:06:51.672Z,11.10
2019-04-30T15:09:21.022Z,10.70
2019-04-30T15:11:51.916Z,11.33
2019-04-30T15:14:21.659Z,11.00
2019-04-30T15:16:51.489Z,10.90
2019-04-30T15:19:22.978Z,11.77
2019-04-30T15:21:52.088Z,10.93
2019-04-30T15:24:39.620Z,11.10
2019-04-30T15:27:15.032Z,10.17
2019-04-30T15:29:44.260Z,10.37
2019-04-30T15:32:22.764Z,10.60
2019-04-30T15:34:51.943Z,11.07
2019-04-30T15:37:23.781Z,9.27
2019-04-30T15:39:52.432Z,10.23
2019-04-30T15:42:22.859Z,9.60
2019-04-30T15:44:52.202Z,9.67
2019-04-30T15:47:22.955Z,8.77
2019-04-30T15:49:52.227Z,10.57
2019-04-30T15:52:21.450Z,10.07
2019-04-30T15:54:50.860Z,9.87
2019-04-30T15:57:20.139Z,9.23
2019-04-30T15:59:49.403Z,10.50
2019-04-30T16:02:35.339Z,10.93
2019-04-30T16:05:11.566Z,10.10
2019-04-30T16:07:49.247Z,9.30
2019-04-30T16:10:37.028Z,9.30
2019-04-30T16:13:19.393Z,10.10
2019-04-30T16:15:49.200Z,10.13
2019-04-30T16:21:12.171Z,10.27
2019-04-30T16:23:41.657Z,8.90
2019-04-30T16:26:14.368Z,8.47
2019-04-30T16:28:49.496Z,9.47
2019-04-30T16:31:20.389Z,9.33
2019-04-30T16:33:50.585Z,8.03
2019-04-30T16:36:20.117Z,8.40
2019-04-30T16:38:49.566Z,8.00
2019-04-30T16:41:31.013Z,8.00
2019-04-30T16:43:51.075Z,7.60
2019-04-30T16:46:20.334Z,7.77
2019-04-30T16:48:49.492Z,6.70
2019-04-30T16:51:18.867Z,7.03
2019-04-30T16:53:48.675Z,6.60
2019-04-30T16:56:18.615Z,8.23
2019-04-30T16:59:01.014Z,7.93
2019-04-30T17:01:32.110Z,7.87
2019-04-30T17:04:20.286Z,8.23
2019-04-30T17:06:59.246Z,8.37
2019-04-30T17:09:50.948Z,11.37
2019-04-30T17:12:26.638Z,8.27
2019-04-30T17:15:19.128Z,9.33
2019-04-30T17:18:11.894Z,8.73
2019-04-30T17:20:39.136Z,9.37
2019-04-30T17:23:09.462Z,8.13
2019-04-30T17:25:39.114Z,9.40
2019-04-30T17:28:09.289Z,8.50
2019-04-30T17:30:39.281Z,8.23
2019-04-30T17:33:09.520Z,8.03
2019-04-30T17:35:39.453Z,7.60
2019-04-30T17:38:08.957Z,7.80
2019-04-30T17:40:42.726Z,7.00
2019-04-30T17:46:04.256Z,7.87
2019-04-30T17:48:33.684Z,6.70
2019-04-30T17:51:03.297Z,6.90
2019-04-30T17:53:33.261Z,7.50
2019-04-30T17:56:02.456Z,7.53
2019-04-30T17:58:32.160Z,7.03
2019-04-30T18:01:04.331Z,6.40
2019-04-30T18:03:52.645Z,8.33
2019-04-30T18:06:22.155Z,6.73
2019-04-30T18:08:51.578Z,7.00
2019-04-30T18:11:39.614Z,7.10
2019-04-30T18:14:30.354Z,7.83
2019-04-30T18:17:01.742Z,7.23
2019-04-30T18:19:59.304Z,7.50
2019-04-30T18:22:40.297Z,6.80
2019-04-30T18:25:26.919Z,8.00
2019-04-30T18:28:02.761Z,6.60
2019-04-30T18:30:39.492Z,7.70
2019-04-30T18:33:12.794Z,7.20
2019-04-30T18:35:42.250Z,7.13
2019-04-30T18:38:11.748Z,6.37
2019-04-30T18:40:40.967Z,6.63
2019-04-30T18:43:12.819Z,6.57
2019-04-30T18:45:42.220Z,6.80
2019-04-30T18:48:11.634Z,6.77
2019-04-30T18:50:40.935Z,7.40
2019-04-30T18:53:15.676Z,7.00
2019-04-30T18:55:44.964Z,7.00
2019-04-30T18:58:14.269Z,7.23
2019-04-30T19:00:44.677Z,6.47
2019-04-30T19:03:19.855Z,5.77
2019-04-30T19:05:56.038Z,6.37
2019-04-30T19:08:34.464Z,6.67
2019-04-30T19:11:36.174Z,6.10
2019-04-30T19:14:23.408Z,6.67
2019-04-30T19:17:20.773Z,6.60
2019-04-30T19:20:08.611Z,7.80
2019-04-30T19:22:44.352Z,6.60
2019-04-30T19:25:13.713Z,6.37
2019-04-30T19:27:44.990Z,8.35
2019-04-30T19:30:29.285Z,8.40
2019-04-30T19:32:59.344Z,7.87
2019-04-30T19:35:28.670Z,6.80
2019-04-30T19:37:59.259Z,7.07
2019-04-30T19:40:28.683Z,6.33
2019-04-30T19:43:10.320Z,6.77
2019-04-30T19:45:39.539Z,6.17
2019-04-30T19:48:09.097Z,6.83
2019-04-30T19:50:38.387Z,9.30
2019-04-30T19:53:08.772Z,9.43
2019-04-30T19:55:49.289Z,8.90
2019-04-30T19:58:26.121Z,8.90
2019-04-30T20:00:50.096Z,8.67
2019-04-30T20:03:20.094Z,8.67
2019-04-30T20:05:49.454Z,9.10
2019-04-30T20:08:19.879Z,8.57
2019-04-30T20:10:56.199Z,7.33
2019-04-30T20:13:33.915Z,7.67
2019-04-30T20:15:59.259Z,8.90
2019-04-30T20:18:29.235Z,8.70
2019-04-30T20:21:11.891Z,8.20
2019-04-30T20:23:41.399Z,7.70
2019-04-30T20:26:10.610Z,8.20
2019-04-30T20:28:42.403Z,6.90
2019-04-30T20:31:22.926Z,7.07
2019-04-30T20:37:04.029Z,7.27
2019-04-30T20:39:43.561Z,8.47
2019-04-30T20:42:14.434Z,8.07
2019-04-30T20:45:14.267Z,9.10
2019-04-30T20:47:43.349Z,8.37
2019-04-30T20:50:12.635Z,9.47
2019-04-30T20:52:42.406Z,7.70
2019-04-30T20:55:11.712Z,9.83
2019-04-30T20:57:41.277Z,9.25
2019-04-30T21:00:10.924Z,9.50
2019-04-30T21:02:40.235Z,9.00
2019-04-30T21:05:09.626Z,8.83
2019-04-30T21:07:39.046Z,8.53
2019-04-30T21:10:10.154Z,8.57
2019-04-30T21:12:49.859Z,9.13
2019-04-30T21:15:25.061Z,9.63
2019-04-30T21:17:54.468Z,8.53
2019-04-30T21:20:23.795Z,8.47
2019-04-30T21:22:52.847Z,8.93
2019-04-30T21:25:22.096Z,8.57
2019-04-30T21:27:51.283Z,9.47
2019-04-30T21:30:20.440Z,10.30
2019-04-30T21:33:11.592Z,10.43
2019-04-30T21:35:58.628Z,9.77
2019-04-30T21:38:43.521Z,10.30
2019-04-30T21:41:23.568Z,8.33
2019-04-30T21:44:07.004Z,9.03
2019-04-30T21:46:37.629Z,8.73
2019-04-30T21:49:28.868Z,8.17
2019-04-30T21:52:17.353Z,10.37
2019-04-30T21:54:48.606Z,10.03
2019-04-30T21:57:17.257Z,9.87
2019-04-30T21:59:48.649Z,10.20
2019-04-30T22:02:18.031Z,11.40
2019-04-30T22:04:47.249Z,10.43
2019-04-30T22:07:39.586Z,8.27
2019-04-30T22:10:09.096Z,8.97
2019-04-30T22:12:58.631Z,8.37
2019-04-30T22:15:28.216Z,9.37
2019-04-30T22:17:57.966Z,8.63
2019-04-30T22:20:29.203Z,8.67
2019-04-30T22:22:59.025Z,10.57
2019-04-30T22:25:29.328Z,9.00
2019-04-30T22:27:58.824Z,10.43
2019-04-30T22:30:28.010Z,8.23
2019-04-30T22:32:59.383Z,9.03
2019-04-30T22:35:45.991Z,8.23
2019-04-30T22:38:19.028Z,11.23
2019-04-30T22:40:48.832Z,9.30
2019-04-30T22:43:18.067Z,8.30
2019-04-30T22:45:52.658Z,8.80
2019-04-30T22:48:22.449Z,9.10
2019-04-30T22:50:51.686Z,9.23
2019-04-30T22:53:21.186Z,10.20
2019-04-30T22:55:50.462Z,7.70
2019-04-30T22:58:19.559Z,9.37
2019-04-30T23:00:49.213Z,11.17
2019-04-30T23:03:37.749Z,10.53
2019-04-30T23:06:07.095Z,10.93
2019-04-30T23:08:38.032Z,9.27
2019-04-30T23:11:07.634Z,8.17
2019-04-30T23:13:37.211Z,7.70
2019-04-30T23:16:06.713Z,7.87
2019-04-30T23:18:36.309Z,8.37
2019-04-30T23:21:07.388Z,9.77
2019-04-30T23:23:37.238Z,10.03
2019-04-30T23:26:06.677Z,7.90
2019-04-30T23:28:36.297Z,8.13
2019-04-30T23:31:05.630Z,7.97
2019-04-30T23:33:35.050Z,7.63
2019-04-30T23:36:04.267Z,10.03
2019-04-30T23:38:33.833Z,8.43
2019-04-30T23:41:03.139Z,6.67
2019-04-30T23:43:32.359Z,8.10
2019-04-30T23:46:01.875Z,8.03
2019-04-30T23:48:31.158Z,8.73
2019-04-30T23:51:00.422Z,9.20
2019-04-30T23:53:29.979Z,7.80
2019-04-30T23:55:59.155Z,8.87
2019-04-30T23:58:28.309Z,8.20
